createdAt,value
2018-05-23T00:02:09.267Z,77.40
2018-05-23T00:04:37.306Z,76.92
2018-05-23T00:07:05.217Z,77.34
2018-05-23T00:09:33.128Z,77.38
2018-05-23T00:12:01.065Z,76.36
2018-05-23T00:14:29.057Z,76.21
2018-05-23T00:16:56.986Z,75.84
2018-05-23T00:19:25.378Z,76.11
2018-05-23T00:21:53.297Z,76.39
2018-05-23T00:24:21.217Z,76.13
2018-05-23T00:26:49.123Z,76.21
2018-05-23T00:29:17.081Z,76.40
2018-05-23T00:31:44.990Z,76.46
2018-05-23T00:34:12.935Z,76.41
2018-05-23T00:36:40.847Z,76.50
2018-05-23T00:39:08.768Z,76.41
2018-05-23T00:41:36.700Z,76.60
2018-05-23T00:44:04.617Z,77.00
2018-05-23T00:46:32.549Z,76.85
2018-05-23T00:49:00.493Z,76.53
2018-05-23T00:51:28.412Z,77.21
2018-05-23T00:53:56.345Z,76.84
2018-05-23T00:56:24.271Z,76.98
2018-05-23T00:58:52.393Z,76.79
2018-05-23T01:01:20.312Z,77.15
2018-05-23T01:03:49.023Z,76.53
2018-05-23T01:06:16.938Z,76.60
2018-05-23T01:08:44.859Z,76.62
2018-05-23T01:11:12.897Z,76.13
2018-05-23T01:13:40.834Z,76.31
2018-05-23T01:16:09.040Z,76.50
2018-05-23T01:18:36.945Z,76.72
2018-05-23T01:21:04.876Z,76.52
2018-05-23T01:23:32.802Z,76.05
2018-05-23T01:26:00.738Z,75.92
2018-05-23T01:28:28.637Z,75.99
2018-05-23T01:30:57.170Z,76.14
2018-05-23T01:33:25.083Z,75.79
2018-05-23T01:35:53.020Z,76.08
2018-05-23T01:38:20.941Z,76.21
2018-05-23T01:40:48.877Z,76.22
2018-05-23T01:43:16.795Z,76.68
2018-05-23T01:45:44.719Z,76.53
2018-05-23T01:48:12.619Z,76.39
2018-05-23T01:50:40.556Z,76.16
2018-05-23T01:53:08.459Z,75.82
2018-05-23T01:55:36.386Z,75.49
2018-05-23T01:58:04.288Z,75.44
2018-05-23T02:00:32.229Z,74.91
2018-05-23T02:03:00.133Z,74.92
2018-05-23T02:05:28.080Z,74.61
2018-05-23T02:07:56.012Z,74.35
2018-05-23T02:10:23.933Z,74.14
2018-05-23T02:12:51.866Z,74.05
2018-05-23T02:15:19.809Z,74.09
2018-05-23T02:17:47.744Z,74.11
2018-05-23T02:20:15.657Z,74.12
2018-05-23T02:22:43.609Z,74.31
2018-05-23T02:25:11.628Z,75.17
2018-05-23T02:27:39.560Z,75.31
2018-05-23T02:30:07.473Z,75.39
2018-05-23T02:32:35.424Z,75.48
2018-05-23T02:35:03.349Z,75.30
2018-05-23T02:37:31.274Z,75.59
2018-05-23T02:39:59.208Z,75.60
2018-05-23T02:42:27.138Z,74.76
2018-05-23T02:44:55.069Z,74.75
2018-05-23T02:47:23.054Z,74.90
2018-05-23T02:49:51.063Z,74.99
2018-05-23T02:52:18.872Z,75.39
2018-05-23T02:54:46.809Z,75.57
2018-05-23T02:57:14.721Z,75.57
2018-05-23T02:59:42.655Z,75.74
2018-05-23T03:02:10.565Z,76.08
2018-05-23T03:04:38.483Z,75.79
2018-05-23T03:07:06.621Z,75.70
2018-05-23T03:09:34.552Z,75.98
2018-05-23T03:12:02.455Z,75.99
2018-05-23T03:14:30.378Z,76.00
2018-05-23T03:16:58.304Z,75.86
2018-05-23T03:19:26.202Z,75.62
2018-05-23T03:21:54.115Z,75.74
2018-05-23T03:24:22.065Z,76.04
2018-05-23T03:26:50.505Z,75.77
2018-05-23T03:29:18.420Z,75.54
2018-05-23T03:31:46.351Z,75.77
2018-05-23T03:34:14.250Z,76.44
2018-05-23T03:36:42.181Z,76.54
2018-05-23T03:39:10.096Z,76.41
2018-05-23T03:41:38.030Z,76.52
2018-05-23T03:44:05.947Z,76.34
2018-05-23T03:46:33.862Z,75.53
2018-05-23T03:49:01.803Z,75.64
2018-05-23T03:51:29.714Z,74.86
2018-05-23T03:53:57.634Z,74.70
2018-05-23T03:56:25.556Z,75.51
2018-05-23T03:58:53.468Z,76.30
2018-05-23T04:01:33.860Z,75.57
2018-05-23T04:04:13.730Z,75.54
2018-05-23T04:06:53.514Z,75.09
2018-05-23T04:09:21.441Z,74.56
2018-05-23T04:11:49.389Z,73.98
2018-05-23T04:14:17.332Z,74.26
2018-05-23T04:16:45.272Z,74.20
2018-05-23T04:19:13.198Z,73.53
2018-05-23T04:21:41.138Z,73.51
2018-05-23T04:24:09.345Z,73.55
2018-05-23T04:26:37.166Z,72.95
2018-05-23T04:29:05.087Z,73.20
2018-05-23T04:31:33.031Z,72.48
2018-05-23T04:34:00.944Z,72.74
2018-05-23T04:36:28.860Z,72.78
2018-05-23T04:38:56.773Z,72.67
2018-05-23T04:41:24.684Z,71.60
2018-05-23T04:43:52.629Z,71.95
2018-05-23T04:46:20.527Z,71.80
2018-05-23T04:48:48.467Z,71.77
2018-05-23T04:51:16.364Z,71.45
2018-05-23T04:53:44.283Z,71.04
2018-05-23T04:56:12.209Z,71.03
2018-05-23T04:58:40.139Z,70.74
2018-05-23T05:01:08.059Z,70.60
2018-05-23T05:03:35.968Z,70.07
2018-05-23T05:06:03.900Z,69.65
2018-05-23T05:08:31.834Z,70.04
2018-05-23T05:10:59.754Z,69.88
2018-05-23T05:13:27.663Z,70.13
2018-05-23T05:15:55.576Z,70.05
2018-05-23T05:18:23.504Z,69.49
2018-05-23T05:20:51.481Z,69.58
2018-05-23T05:23:19.404Z,69.02
2018-05-23T05:25:47.315Z,68.50
2018-05-23T05:28:15.308Z,67.79
2018-05-23T05:30:43.194Z,68.55
2018-05-23T05:33:11.115Z,67.54
2018-05-23T05:35:39.047Z,66.40
2018-05-23T05:38:06.965Z,66.07
2018-05-23T05:40:34.898Z,65.43
2018-05-23T05:43:02.823Z,65.33
2018-05-23T05:45:30.775Z,65.13
2018-05-23T05:47:58.684Z,64.45
2018-05-23T05:50:26.649Z,64.66
2018-05-23T05:52:54.538Z,63.66
2018-05-23T05:55:22.514Z,63.05
2018-05-23T05:57:50.432Z,63.24
2018-05-23T06:00:18.363Z,62.81
2018-05-23T06:02:46.283Z,62.75
2018-05-23T06:05:14.214Z,62.53
2018-05-23T06:07:42.134Z,62.83
2018-05-23T06:10:10.081Z,62.60
2018-05-23T06:12:38.912Z,63.07
2018-05-23T06:15:06.848Z,62.76
2018-05-23T06:17:34.753Z,63.26
2018-05-23T06:20:02.689Z,63.53
2018-05-23T06:22:30.625Z,63.67
2018-05-23T06:24:59.716Z,62.95
2018-05-23T06:27:27.661Z,63.11
2018-05-23T06:29:55.643Z,62.52
2018-05-23T06:32:23.558Z,62.25
2018-05-23T06:34:51.502Z,63.23
2018-05-23T06:37:19.417Z,62.61
2018-05-23T06:39:47.346Z,61.99
2018-05-23T06:42:15.248Z,62.15
2018-05-23T06:44:43.210Z,61.81
2018-05-23T06:47:11.113Z,61.17
2018-05-23T06:49:39.025Z,60.28
2018-05-23T06:52:06.976Z,57.87
2018-05-23T06:54:34.880Z,56.45
2018-05-23T06:57:02.782Z,53.91
2018-05-23T06:59:30.710Z,53.13
2018-05-23T07:01:58.636Z,51.19
2018-05-23T07:04:26.535Z,50.62
2018-05-23T07:06:54.532Z,49.24
2018-05-23T07:09:22.486Z,48.53
2018-05-23T07:11:50.431Z,47.07
2018-05-23T07:14:18.349Z,47.69
2018-05-23T07:16:46.288Z,47.10
2018-05-23T07:19:14.180Z,46.73
2018-05-23T07:21:42.128Z,45.19
2018-05-23T07:24:10.055Z,44.08
2018-05-23T07:26:38.065Z,43.96
2018-05-23T07:29:05.957Z,43.74
2018-05-23T07:31:33.868Z,43.48
2018-05-23T07:34:01.792Z,43.86
2018-05-23T07:36:29.909Z,44.32
2018-05-23T07:38:57.831Z,43.46
2018-05-23T07:41:25.724Z,42.55
2018-05-23T07:43:54.371Z,40.84
2018-05-23T07:46:22.294Z,41.12
2018-05-23T07:48:50.204Z,39.89
2018-05-23T07:51:18.167Z,41.25
2018-05-23T07:53:46.144Z,41.44
2018-05-23T07:56:14.068Z,40.02
2018-05-23T07:58:41.980Z,40.59
2018-05-23T08:01:09.905Z,38.95
2018-05-23T08:03:37.826Z,39.00
2018-05-23T08:06:05.742Z,39.19
2018-05-23T08:08:33.695Z,38.87
2018-05-23T08:11:01.668Z,37.54
2018-05-23T08:13:29.600Z,38.46
2018-05-23T08:15:57.565Z,38.36
2018-05-23T08:18:25.467Z,38.21
2018-05-23T08:20:53.391Z,38.22
2018-05-23T08:23:21.300Z,36.53
2018-05-23T08:25:49.241Z,36.71
2018-05-23T08:28:17.178Z,37.46
2018-05-23T08:30:45.070Z,36.65
2018-05-23T08:33:13.007Z,36.67
2018-05-23T08:35:40.937Z,35.18
2018-05-23T08:38:08.838Z,34.84
2018-05-23T08:40:36.799Z,34.82
2018-05-23T08:43:04.703Z,35.31
2018-05-23T08:45:32.702Z,34.14
2018-05-23T08:48:00.673Z,34.21
2018-05-23T08:50:28.653Z,33.17
2018-05-23T08:52:56.544Z,33.72
2018-05-23T08:55:24.475Z,32.37
2018-05-23T08:57:52.381Z,32.50
2018-05-23T09:00:20.810Z,32.77
2018-05-23T09:02:48.724Z,32.58
2018-05-23T09:05:16.702Z,32.84
2018-05-23T09:07:44.618Z,32.59
2018-05-23T09:10:12.579Z,34.95
2018-05-23T09:12:40.511Z,34.51
2018-05-23T09:15:08.397Z,33.89
2018-05-23T09:17:36.321Z,34.00
2018-05-23T09:20:04.244Z,34.44
2018-05-23T09:22:32.172Z,35.60
2018-05-23T09:25:00.081Z,33.77
2018-05-23T09:27:28.007Z,33.93
2018-05-23T09:29:55.943Z,34.14
2018-05-23T09:32:23.869Z,33.89
2018-05-23T09:34:51.788Z,34.12
2018-05-23T09:37:19.723Z,33.04
2018-05-23T09:39:47.637Z,33.55
2018-05-23T09:42:15.568Z,33.89
2018-05-23T09:44:43.478Z,33.08
2018-05-23T09:47:11.405Z,31.82
2018-05-23T09:49:39.400Z,32.93
2018-05-23T09:52:07.356Z,32.91
2018-05-23T09:54:35.294Z,31.60
2018-05-23T09:57:03.248Z,31.41
2018-05-23T09:59:31.160Z,31.67
2018-05-23T10:01:59.102Z,30.24
2018-05-23T10:04:27.048Z,31.53
2018-05-23T10:06:54.966Z,32.19
2018-05-23T10:09:22.889Z,31.63
2018-05-23T10:11:50.832Z,32.43
2018-05-23T10:14:18.752Z,31.96
2018-05-23T10:16:46.824Z,32.14
2018-05-23T10:19:14.739Z,30.90
2018-05-23T10:21:42.680Z,32.60
2018-05-23T10:24:10.606Z,32.59
2018-05-23T10:26:38.523Z,30.23
2018-05-23T10:29:06.447Z,30.54
2018-05-23T10:31:34.355Z,30.55
2018-05-23T10:34:02.252Z,29.87
2018-05-23T10:36:30.164Z,30.76
2018-05-23T10:38:58.157Z,31.13
2018-05-23T10:41:26.016Z,30.76
2018-05-23T10:43:53.946Z,29.94
2018-05-23T10:46:21.868Z,29.61
2018-05-23T10:48:49.784Z,31.25
2018-05-23T10:51:17.797Z,30.83
2018-05-23T10:53:45.696Z,30.55
2018-05-23T10:56:13.612Z,29.69
2018-05-23T10:58:41.587Z,29.32
2018-05-23T11:01:09.504Z,29.09
2018-05-23T11:03:37.571Z,29.27
2018-05-23T11:06:05.479Z,28.97
2018-05-23T11:08:33.384Z,28.75
2018-05-23T11:11:01.351Z,30.29
2018-05-23T11:13:29.278Z,29.87
2018-05-23T11:15:57.202Z,28.91
2018-05-23T11:18:25.136Z,28.26
2018-05-23T11:20:53.057Z,28.21
2018-05-23T11:23:20.969Z,27.74
2018-05-23T11:25:48.875Z,28.77
2018-05-23T11:28:16.792Z,28.83
2018-05-23T11:30:44.687Z,28.37
2018-05-23T11:33:12.846Z,29.61
2018-05-23T11:35:40.736Z,29.52
2018-05-23T11:38:08.666Z,29.32
2018-05-23T11:40:36.593Z,29.28
2018-05-23T11:43:04.502Z,30.04
2018-05-23T11:45:32.433Z,29.90
2018-05-23T11:48:00.339Z,29.35
2018-05-23T11:50:28.278Z,29.06
2018-05-23T11:52:56.188Z,28.86
2018-05-23T11:55:24.098Z,29.13
2018-05-23T11:57:51.999Z,29.35
2018-05-23T12:00:19.945Z,29.15
2018-05-23T12:02:47.853Z,30.04
2018-05-23T12:05:15.754Z,30.30
2018-05-23T12:07:43.655Z,29.44
2018-05-23T12:10:11.588Z,29.32
2018-05-23T12:12:39.491Z,27.91
2018-05-23T12:15:07.429Z,28.03
2018-05-23T12:17:35.371Z,27.95
2018-05-23T12:20:03.284Z,29.21
2018-05-23T12:22:31.187Z,28.56
2018-05-23T12:24:59.171Z,28.32
2018-05-23T12:27:27.084Z,28.03
2018-05-23T12:29:55.004Z,28.53
2018-05-23T12:32:22.976Z,28.01
2018-05-23T12:34:50.892Z,27.45
2018-05-23T12:37:19.625Z,28.61
2018-05-23T12:39:47.550Z,27.58
2018-05-23T12:42:15.518Z,28.55
2018-05-23T12:44:43.405Z,28.09
2018-05-23T12:47:11.371Z,27.39
2018-05-23T12:49:39.328Z,27.49
2018-05-23T12:52:07.271Z,27.30
2018-05-23T12:54:35.208Z,27.71
2018-05-23T12:57:03.281Z,27.57
2018-05-23T12:59:31.248Z,27.72
2018-05-23T13:01:59.294Z,27.62
2018-05-23T13:04:27.187Z,27.06
2018-05-23T13:06:55.120Z,27.31
2018-05-23T13:09:23.034Z,27.71
2018-05-23T13:11:50.961Z,28.06
2018-05-23T13:14:18.852Z,27.81
2018-05-23T13:16:46.776Z,28.24
2018-05-23T13:19:14.679Z,29.12
2018-05-23T13:21:42.631Z,29.48
2018-05-23T13:24:10.545Z,29.56
2018-05-23T13:26:38.436Z,29.58
2018-05-23T13:29:06.365Z,29.63
2018-05-23T13:31:34.353Z,29.77
2018-05-23T13:34:02.257Z,30.59
2018-05-23T13:36:30.188Z,31.22
2018-05-23T13:38:58.193Z,30.25
2018-05-23T13:41:26.020Z,29.43
2018-05-23T13:43:53.931Z,29.48
2018-05-23T13:46:21.904Z,29.45
2018-05-23T13:48:49.797Z,29.91
2018-05-23T13:51:17.740Z,30.61
2018-05-23T13:53:45.649Z,30.69
2018-05-23T13:56:13.559Z,31.05
2018-05-23T13:58:41.465Z,31.59
2018-05-23T14:01:09.578Z,31.62
2018-05-23T14:03:37.498Z,30.92
2018-05-23T14:06:05.394Z,30.63
2018-05-23T14:08:33.309Z,30.20
2018-05-23T14:11:01.255Z,30.37
2018-05-23T14:13:29.183Z,30.68
2018-05-23T14:15:57.113Z,30.86
2018-05-23T14:18:25.024Z,31.34
2018-05-23T14:20:53.057Z,30.53
2018-05-23T14:23:20.939Z,30.45
2018-05-23T14:25:48.851Z,31.05
2018-05-23T14:28:16.787Z,31.39
2018-05-23T14:30:44.707Z,31.15
2018-05-23T14:33:12.627Z,31.78
2018-05-23T14:35:40.776Z,31.41
2018-05-23T14:38:08.688Z,31.62
2018-05-23T14:40:36.613Z,32.16
2018-05-23T14:43:04.532Z,32.26
2018-05-23T14:45:32.456Z,31.92
2018-05-23T14:48:00.405Z,31.16
2018-05-23T14:50:28.506Z,31.69
2018-05-23T14:52:56.421Z,35.86
2018-05-23T14:55:24.322Z,33.41
2018-05-23T14:57:52.231Z,32.65
2018-05-23T15:00:20.152Z,33.11
2018-05-23T15:02:48.061Z,32.99
2018-05-23T15:05:15.964Z,32.98
2018-05-23T15:07:44.007Z,33.65
2018-05-23T15:10:11.960Z,33.98
2018-05-23T15:12:39.864Z,34.82
2018-05-23T15:15:07.778Z,33.52
2018-05-23T15:17:35.678Z,34.13
2018-05-23T15:20:03.738Z,34.43
2018-05-23T15:22:31.584Z,35.07
2018-05-23T15:24:59.474Z,35.77
2018-05-23T15:27:27.385Z,35.40
2018-05-23T15:29:55.462Z,35.73
2018-05-23T15:32:23.386Z,35.87
2018-05-23T15:34:51.373Z,35.37
2018-05-23T15:37:19.292Z,35.28
2018-05-23T15:39:47.209Z,36.53
2018-05-23T15:42:16.149Z,36.03
2018-05-23T15:44:43.999Z,36.34
2018-05-23T15:47:11.923Z,37.11
2018-05-23T15:49:39.836Z,38.36
2018-05-23T15:52:07.795Z,37.66
2018-05-23T15:54:35.752Z,37.27
2018-05-23T15:57:03.683Z,37.37
2018-05-23T15:59:31.597Z,37.82
2018-05-23T16:01:59.676Z,38.21
2018-05-23T16:04:27.588Z,38.56
2018-05-23T16:06:55.498Z,38.95
2018-05-23T16:09:23.430Z,38.96
2018-05-23T16:11:51.356Z,39.38
2018-05-23T16:14:19.276Z,39.06
2018-05-23T16:16:47.195Z,39.24
2018-05-23T16:19:15.138Z,39.68
2018-05-23T16:21:43.035Z,39.81
2018-05-23T16:24:11.100Z,39.63
2018-05-23T16:26:39.840Z,40.26
2018-05-23T16:29:07.753Z,40.40
2018-05-23T16:31:35.681Z,40.05
2018-05-23T16:34:03.697Z,40.32
2018-05-23T16:36:31.575Z,40.14
2018-05-23T16:38:59.487Z,40.71
2018-05-23T16:41:27.411Z,40.52
2018-05-23T16:43:55.332Z,41.02
2018-05-23T16:46:23.249Z,40.78
2018-05-23T16:48:51.172Z,41.11
2018-05-23T16:51:19.115Z,41.54
2018-05-23T16:53:47.103Z,42.48
2018-05-23T16:56:15.037Z,42.48
2018-05-23T16:58:42.967Z,42.56
2018-05-23T17:01:10.912Z,42.78
2018-05-23T17:03:38.815Z,42.23
2018-05-23T17:06:06.812Z,42.52
2018-05-23T17:08:34.765Z,42.90
2018-05-23T17:11:02.674Z,42.57
2018-05-23T17:13:30.600Z,42.76
2018-05-23T17:15:58.532Z,43.06
2018-05-23T17:18:26.446Z,43.32
2018-05-23T17:20:54.395Z,42.97
2018-05-23T17:23:22.336Z,43.20
2018-05-23T17:25:50.247Z,43.51
2018-05-23T17:28:19.005Z,43.31
2018-05-23T17:30:46.925Z,43.77
2018-05-23T17:33:14.868Z,42.93
2018-05-23T17:35:42.944Z,43.12
2018-05-23T17:38:10.887Z,42.80
2018-05-23T17:40:39.024Z,42.21
2018-05-23T17:43:06.973Z,42.02
2018-05-23T17:45:34.877Z,41.26
2018-05-23T17:48:02.795Z,40.82
2018-05-23T17:50:30.729Z,41.17
2018-05-23T17:52:58.769Z,40.76
2018-05-23T17:55:26.801Z,40.59
2018-05-23T17:57:54.751Z,39.53
2018-05-23T18:00:22.681Z,39.52
2018-05-23T18:02:50.608Z,40.32
2018-05-23T18:05:18.550Z,40.04
2018-05-23T18:07:47.407Z,39.94
2018-05-23T18:10:15.334Z,39.81
2018-05-23T18:12:43.271Z,39.87
2018-05-23T18:15:12.821Z,39.94
2018-05-23T18:17:40.849Z,39.65
2018-05-23T18:20:08.704Z,39.62
2018-05-23T18:22:36.615Z,40.02
2018-05-23T18:25:04.587Z,40.42
2018-05-23T18:27:32.898Z,40.51
2018-05-23T18:30:00.821Z,40.78
2018-05-23T18:32:28.820Z,41.33
2018-05-23T18:34:56.731Z,41.50
2018-05-23T18:37:24.709Z,41.65
2018-05-23T18:39:53.331Z,41.83
2018-05-23T18:42:21.278Z,42.05
2018-05-23T18:44:49.280Z,42.74
2018-05-23T18:47:17.181Z,42.42
2018-05-23T18:49:45.106Z,42.56
2018-05-23T18:52:13.027Z,42.87
2018-05-23T18:54:40.947Z,43.00
2018-05-23T18:57:08.948Z,43.94
2018-05-23T18:59:36.814Z,43.42
2018-05-23T19:02:05.094Z,43.09
2018-05-23T19:04:32.998Z,43.35
2018-05-23T19:07:01.013Z,43.32
2018-05-23T19:09:28.928Z,43.42
2018-05-23T19:11:56.874Z,44.06
2018-05-23T19:14:24.762Z,43.51
2018-05-23T19:16:52.730Z,43.46
2018-05-23T19:19:20.806Z,44.29
2018-05-23T19:21:49.579Z,43.97
2018-05-23T19:24:17.533Z,45.31
2018-05-23T19:26:45.455Z,46.24
2018-05-23T19:29:13.545Z,46.99
2018-05-23T19:31:41.463Z,46.13
2018-05-23T19:34:09.416Z,46.19
2018-05-23T19:36:37.350Z,46.40
2018-05-23T19:39:05.275Z,46.93
2018-05-23T19:41:33.236Z,47.18
2018-05-23T19:44:01.310Z,46.93
2018-05-23T19:46:29.643Z,47.36
2018-05-23T19:48:58.279Z,48.61
2018-05-23T19:51:26.220Z,48.19
2018-05-23T19:53:54.220Z,48.23
2018-05-23T19:56:22.254Z,48.97
2018-05-23T19:58:50.241Z,49.47
2018-05-23T20:01:18.166Z,49.56
2018-05-23T20:03:46.083Z,50.12
2018-05-23T20:06:14.473Z,50.09
2018-05-23T20:08:42.375Z,49.82
2018-05-23T20:11:10.329Z,50.27
2018-05-23T20:13:38.261Z,50.50
2018-05-23T20:16:06.219Z,50.69
2018-05-23T20:18:34.189Z,51.13
2018-05-23T20:21:02.225Z,51.11
2018-05-23T20:23:30.171Z,51.43
2018-05-23T20:25:58.224Z,51.51
2018-05-23T20:28:26.192Z,51.62
2018-05-23T20:30:54.092Z,51.61
2018-05-23T20:33:22.048Z,52.02
2018-05-23T20:35:49.999Z,52.71
2018-05-23T20:38:18.518Z,53.31
2018-05-23T20:40:47.121Z,53.39
2018-05-23T20:43:15.616Z,53.26
2018-05-23T20:45:44.473Z,53.23
2018-05-23T20:48:12.390Z,53.49
2018-05-23T20:50:40.315Z,53.62
2018-05-23T20:53:08.310Z,53.71
2018-05-23T20:55:36.231Z,54.19
2018-05-23T20:58:04.136Z,55.43
2018-05-23T21:00:32.088Z,56.06
2018-05-23T21:02:59.987Z,56.89
2018-05-23T21:05:28.095Z,57.30
2018-05-23T21:07:55.938Z,57.93
2018-05-23T21:10:23.910Z,57.51
2018-05-23T21:12:51.910Z,57.31
2018-05-23T21:15:20.060Z,57.32
2018-05-23T21:17:47.984Z,57.45
2018-05-23T21:20:15.916Z,57.64
2018-05-23T21:22:43.849Z,57.43
2018-05-23T21:25:11.786Z,57.67
2018-05-23T21:27:39.781Z,57.96
2018-05-23T21:30:07.694Z,56.81
2018-05-23T21:32:35.616Z,57.04
2018-05-23T21:35:03.555Z,55.97
2018-05-23T21:37:31.509Z,56.10
2018-05-23T21:39:59.418Z,56.39
2018-05-23T21:42:27.374Z,57.09
2018-05-23T21:44:55.397Z,57.90
2018-05-23T21:47:23.300Z,58.45
2018-05-23T21:49:51.203Z,58.33
2018-05-23T21:52:19.120Z,57.92
2018-05-23T21:54:47.113Z,58.19
2018-05-23T21:57:15.060Z,58.56
2018-05-23T21:59:42.983Z,58.69
2018-05-23T22:02:10.919Z,58.64
2018-05-23T22:04:38.822Z,58.72
2018-05-23T22:07:06.722Z,58.94
2018-05-23T22:09:34.671Z,59.03
2018-05-23T22:12:02.599Z,58.49
2018-05-23T22:14:30.505Z,59.20
2018-05-23T22:16:58.427Z,59.56
2018-05-23T22:19:26.343Z,60.15
2018-05-23T22:21:54.272Z,59.96
2018-05-23T22:24:22.188Z,60.35
2018-05-23T22:26:50.096Z,60.02
2018-05-23T22:29:18.057Z,61.09
2018-05-23T22:31:45.941Z,61.06
2018-05-23T22:34:13.859Z,60.82
2018-05-23T22:36:41.767Z,60.94
2018-05-23T22:39:09.833Z,61.38
2018-05-23T22:41:37.724Z,61.67
2018-05-23T22:44:05.656Z,62.41
2018-05-23T22:46:33.576Z,62.98
2018-05-23T22:49:01.491Z,62.98
2018-05-23T22:51:29.440Z,62.77
2018-05-23T22:53:57.388Z,63.13
2018-05-23T22:56:25.329Z,63.72
2018-05-23T22:58:53.240Z,63.69
2018-05-23T23:01:21.154Z,63.29
2018-05-23T23:03:49.084Z,63.56
2018-05-23T23:06:16.995Z,64.14
2018-05-23T23:08:44.932Z,64.32
2018-05-23T23:11:12.841Z,64.30
2018-05-23T23:13:40.752Z,64.31
2018-05-23T23:16:08.669Z,64.53
2018-05-23T23:18:36.589Z,64.53
2018-05-23T23:21:04.511Z,64.30
2018-05-23T23:23:32.434Z,64.89
2018-05-23T23:26:00.354Z,65.35
2018-05-23T23:28:28.271Z,65.52
2018-05-23T23:30:56.185Z,65.92
2018-05-23T23:33:24.091Z,66.63
2018-05-23T23:35:52.027Z,65.98
2018-05-23T23:38:19.930Z,65.63
2018-05-23T23:40:47.947Z,66.57
2018-05-23T23:43:15.867Z,66.43
2018-05-23T23:45:43.772Z,66.96
2018-05-23T23:48:11.748Z,67.38
2018-05-23T23:50:39.635Z,66.78
2018-05-23T23:53:07.561Z,67.23
2018-05-23T23:55:35.466Z,66.49
2018-05-23T23:58:03.403Z,66.72
